Time;durP1;ratioP1;P1;durP2;ratioP2;P2;SDS_P1;SDS_P2;PMS_P1;PMS_P2;Temp;Humidity;BMP_temperature;BMP_pressure;BME280_temperature;BME280_humidity;BME280_pressure;Samples;Min_cycle;Max_cycle;Signal;HPM_P1;HPM_P2
2023/04/11 00:01:48;;;;;;;1.92;1.50;;;16.50;79.40;;;;;;5078259;28;20575;-57
2023/04/11 00:04:19;;;;;;;3.17;1.33;;;16.50;79.70;;;;;;5079113;28;20197;-58
2023/04/11 00:06:46;;;;;;;1.98;1.40;;;16.50;80.10;;;;;;5078807;28;20205;-58
2023/04/11 00:09:13;;;;;;;3.50;1.27;;;16.50;80.10;;;;;;5078938;28;20587;-58
2023/04/11 00:11:40;;;;;;;2.65;1.30;;;16.50;80.60;;;;;;5078435;28;20262;-57
2023/04/11 00:14:07;;;;;;;3.13;1.40;;;16.60;80.80;;;;;;5078792;28;20224;-58
2023/04/11 00:16:35;;;;;;;5.03;1.60;;;16.60;80.70;;;;;;5079013;28;20311;-57
2023/04/11 00:19:01;;;;;;;1.58;1.15;;;16.60;81.00;;;;;;5078446;28;20806;-58
2023/04/11 00:21:30;;;;;;;2.22;1.30;;;16.50;81.00;;;;;;5078776;28;20296;-58
2023/04/11 00:23:57;;;;;;;2.38;1.35;;;16.50;81.30;;;;;;5079399;28;20252;-59
2023/04/11 00:26:23;;;;;;;3.00;1.15;;;16.40;81.50;;;;;;5078485;28;20255;-59
2023/04/11 00:28:50;;;;;;;2.67;1.30;;;16.40;81.80;;;;;;5077749;28;20319;-59
2023/04/11 00:31:17;;;;;;;1.95;1.20;;;16.40;82.10;;;;;;5077691;28;20289;-59
2023/04/11 00:33:44;;;;;;;3.80;1.48;;;16.40;82.40;;;;;;5077942;28;20262;-58
2023/04/11 00:36:11;;;;;;;1.58;1.20;;;16.40;82.70;;;;;;5077571;28;20229;-57
2023/04/11 00:38:41;;;;;;;2.67;1.20;;;16.50;82.90;;;;;;5077500;28;20233;-58
2023/04/11 00:41:08;;;;;;;3.58;1.20;;;16.40;82.80;;;;;;5078855;28;20248;-58
2023/04/11 00:43:35;;;;;;;3.33;1.25;;;16.40;83.60;;;;;;5078192;28;20669;-59
2023/04/11 00:46:02;;;;;;;2.08;1.23;;;16.50;82.90;;;;;;5078384;28;20208;-58
2023/04/11 00:48:29;;;;;;;3.15;1.30;;;16.60;83.00;;;;;;5078699;28;20256;-58
2023/04/11 00:50:56;;;;;;;2.60;1.15;;;16.60;83.00;;;;;;5078552;28;20207;-58
2023/04/11 00:53:23;;;;;;;2.08;1.10;;;16.60;83.00;;;;;;5077905;28;20232;-58
2023/04/11 00:55:52;;;;;;;1.67;1.05;;;16.60;83.00;;;;;;5077880;28;20224;-59
2023/04/11 00:58:19;;;;;;;1.00;0.90;;;16.50;83.00;;;;;;5077745;28;20232;-58
2023/04/11 01:00:48;;;;;;;3.72;1.13;;;16.60;83.40;;;;;;5077589;28;20230;-58
2023/04/11 01:03:15;;;;;;;4.15;0.90;;;16.60;83.80;;;;;;5077594;28;20232;-58
2023/04/11 01:05:43;;;;;;;1.95;1.20;;;16.60;84.10;;;;;;5077415;28;20526;-58
2023/04/11 01:08:11;;;;;;;2.00;0.98;;;16.70;84.70;;;;;;5077908;28;20225;-58
2023/04/11 01:10:39;;;;;;;3.37;1.33;;;16.70;86.50;;;;;;5077224;28;20209;-58
2023/04/11 01:13:08;;;;;;;3.15;1.25;;;16.70;86.50;;;;;;5077433;28;20626;-58
2023/04/11 01:15:35;;;;;;;2.58;1.25;;;16.70;86.40;;;;;;5077174;28;20239;-58
2023/04/11 01:18:02;;;;;;;2.22;1.38;;;16.50;85.90;;;;;;5077621;28;20632;-58
2023/04/11 01:20:30;;;;;;;4.28;1.33;;;16.40;87.30;;;;;;5076643;28;20616;-58
2023/04/11 01:23:01;;;;;;;3.58;1.30;;;16.40;88.30;;;;;;5076748;28;20590;-58
2023/04/11 01:25:30;;;;;;;2.00;1.20;;;16.40;90.00;;;;;;5077716;28;20280;-58
2023/04/11 01:27:57;;;;;;;2.13;1.20;;;16.50;91.70;;;;;;5077230;28;20244;-60
2023/04/11 01:30:24;;;;;;;3.47;1.30;;;16.50;92.10;;;;;;5075802;28;20224;-59
2023/04/11 01:32:51;;;;;;;5.70;1.50;;;16.40;92.30;;;;;;5076317;28;20205;-59
2023/04/11 01:35:19;;;;;;;1.88;1.27;;;16.40;93.40;;;;;;5076412;28;20205;-59
2023/04/11 01:37:46;;;;;;;5.55;1.58;;;16.30;93.90;;;;;;5076530;28;20264;-59
2023/04/11 01:40:17;;;;;;;2.55;1.33;;;16.30;94.70;;;;;;5076371;28;20292;-59
2023/04/11 01:42:46;;;;;;;1.80;1.05;;;16.30;94.80;;;;;;5075980;28;20205;-59
2023/04/11 01:45:13;;;;;;;2.80;1.35;;;16.30;95.20;;;;;;5075345;28;20205;-59
2023/04/11 01:47:40;;;;;;;3.25;1.27;;;16.30;95.80;;;;;;5075518;28;20221;-58
2023/04/11 01:50:08;;;;;;;2.17;1.47;;;16.20;97.40;;;;;;5075413;28;20212;-59
2023/04/11 01:52:35;;;;;;;2.25;1.30;;;16.00;97.90;;;;;;5075442;28;20205;-59
2023/04/11 01:55:02;;;;;;;4.07;1.70;;;15.80;99.60;;;;;;5076264;28;20213;-59
2023/04/11 01:57:29;;;;;;;2.63;1.63;;;15.70;99.90;;;;;;5075821;28;20243;-59
2023/04/11 01:59:58;;;;;;;12.23;1.70;;;15.60;99.90;;;;;;5076029;28;20692;-59
2023/04/11 02:02:25;;;;;;;3.33;1.30;;;15.50;99.90;;;;;;5076585;28;20287;-59
2023/04/11 02:04:52;;;;;;;1.73;1.37;;;15.40;99.90;;;;;;5076688;28;20254;-59
2023/04/11 02:07:19;;;;;;;1.75;1.20;;;15.30;99.90;;;;;;5076316;28;20201;-59
2023/04/11 02:09:46;;;;;;;3.40;1.57;;;15.20;99.90;;;;;;5076325;28;20205;-59
2023/04/11 02:12:13;;;;;;;4.47;1.70;;;14.90;99.90;;;;;;5076179;28;20211;-59
2023/04/11 02:14:42;;;;;;;3.43;1.80;;;14.50;99.90;;;;;;5076006;28;20204;-59
2023/04/11 02:17:11;;;;;;;3.03;1.53;;;14.20;99.90;;;;;;5075992;28;20225;-57
2023/04/11 02:19:39;;;;;;;3.60;1.70;;;14.00;99.90;;;;;;5075410;28;20249;-57
2023/04/11 02:22:07;;;;;;;5.20;1.60;;;13.80;99.90;;;;;;5074920;28;20221;-57
2023/04/11 02:24:34;;;;;;;1.90;1.53;;;13.70;99.90;;;;;;5075632;28;20205;-58
2023/04/11 02:27:02;;;;;;;3.33;1.50;;;13.60;99.90;;;;;;5075197;28;20639;-58
2023/04/11 02:29:29;;;;;;;2.97;1.53;;;13.50;99.90;;;;;;5038319;28;1086310;-57
2023/04/11 02:31:56;;;;;;;2.13;1.57;;;13.50;99.90;;;;;;5076246;28;20211;-58
2023/04/11 02:34:24;;;;;;;2.23;1.63;;;13.50;99.90;;;;;;5076180;28;20306;-58
2023/04/11 02:36:51;;;;;;;3.00;1.50;;;13.60;99.90;;;;;;5076116;28;20224;-57
2023/04/11 02:39:20;;;;;;;4.47;1.67;;;13.60;99.90;;;;;;5075747;28;20315;-58
2023/04/11 02:41:47;;;;;;;3.80;2.33;;;13.50;99.90;;;;;;5075942;28;20731;-57
2023/04/11 02:44:14;;;;;;;4.27;1.67;;;13.60;99.90;;;;;;5076165;28;20200;-58
2023/04/11 02:46:41;;;;;;;2.23;1.77;;;13.50;99.90;;;;;;5075935;28;20752;-57
2023/04/11 02:49:08;;;;;;;3.67;1.60;;;13.50;99.90;;;;;;5075680;28;20720;-57
2023/04/11 02:51:36;;;;;;;2.20;1.50;;;13.40;99.90;;;;;;5076184;28;20253;-58
2023/04/11 02:54:04;;;;;;;5.80;3.17;;;13.40;99.90;;;;;;5077080;28;20205;-58
2023/04/11 02:56:32;;;;;;;2.10;1.77;;;13.30;99.90;;;;;;5075743;28;20221;-57
2023/04/11 02:58:59;;;;;;;3.83;1.60;;;13.20;99.90;;;;;;5075478;28;20941;-58
2023/04/11 03:01:26;;;;;;;3.80;1.87;;;13.30;99.90;;;;;;5075989;28;20288;-58
2023/04/11 03:03:53;;;;;;;1.87;1.40;;;13.30;99.90;;;;;;5075302;28;20201;-58
2023/04/11 03:06:22;;;;;;;3.00;1.60;;;13.30;99.90;;;;;;5074819;28;20304;-58
2023/04/11 03:08:51;;;;;;;3.80;1.83;;;13.30;99.90;;;;;;5075429;28;20232;-57
2023/04/11 03:11:18;;;;;;;3.70;1.43;;;13.20;99.90;;;;;;5075413;28;20238;-58
2023/04/11 03:13:45;;;;;;;1.87;1.33;;;13.20;99.90;;;;;;5074736;28;20643;-58
2023/04/11 03:16:12;;;;;;;2.17;1.47;;;13.20;99.90;;;;;;5075308;28;20227;-57
2023/04/11 03:18:39;;;;;;;2.13;1.20;;;13.20;99.90;;;;;;5075143;28;20227;-57
2023/04/11 03:21:09;;;;;;;2.53;1.17;;;13.20;99.90;;;;;;5074813;28;20303;-58
2023/04/11 03:23:36;;;;;;;3.47;1.47;;;13.20;99.90;;;;;;5075363;28;20676;-58
2023/04/11 03:26:04;;;;;;;1.97;1.10;;;13.30;99.90;;;;;;5075550;28;20201;-58
2023/04/11 03:28:31;;;;;;;1.57;0.80;;;13.20;99.90;;;;;;5074815;28;20264;-58
2023/04/11 03:30:58;;;;;;;2.57;1.13;;;13.20;99.90;;;;;;5074910;28;20304;-58
2023/04/11 03:33:25;;;;;;;1.97;1.20;;;13.10;99.90;;;;;;5075012;28;20205;-58
2023/04/11 03:35:52;;;;;;;2.77;1.17;;;13.00;99.90;;;;;;5078690;28;20236;-58
2023/04/11 03:38:19;;;;;;;1.93;1.07;;;12.90;99.90;;;;;;5079161;28;20316;-58
2023/04/11 03:40:46;;;;;;;1.43;1.13;;;12.90;99.90;;;;;;5078665;28;20693;-58
2023/04/11 03:43:15;;;;;;;2.40;1.00;;;12.80;99.90;;;;;;5079066;28;20577;-58
2023/04/11 03:45:42;;;;;;;3.90;2.53;;;12.80;99.90;;;;;;5079046;28;20240;-59
2023/04/11 03:48:09;;;;;;;1.97;0.90;;;12.80;99.90;;;;;;5078615;28;20220;-58
2023/04/11 03:50:36;;;;;;;2.53;1.00;;;12.80;99.90;;;;;;5078357;28;20216;-58
2023/04/11 03:53:03;;;;;;;3.03;1.00;;;12.70;99.90;;;;;;5078055;28;20208;-58
2023/04/11 03:55:30;;;;;;;1.90;0.90;;;12.70;99.90;;;;;;5077883;28;20235;-58
2023/04/11 03:57:57;;;;;;;1.67;1.20;;;12.80;99.90;;;;;;5077551;28;20228;-58
2023/04/11 04:00:26;;;;;;;1.77;0.93;;;12.90;99.90;;;;;;5077364;28;20211;-61
2023/04/11 04:02:53;;;;;;;1.57;0.90;;;12.80;99.90;;;;;;5077597;28;20211;-58
2023/04/11 04:05:20;;;;;;;3.13;1.20;;;12.80;99.90;;;;;;5077141;28;20209;-58
2023/04/11 04:07:47;;;;;;;1.40;0.70;;;12.70;99.90;;;;;;5076642;28;20752;-58
2023/04/11 04:10:14;;;;;;;2.50;0.87;;;12.70;99.90;;;;;;5077406;28;20239;-58
2023/04/11 04:12:41;;;;;;;1.87;0.83;;;12.70;99.90;;;;;;5077377;28;20708;-59
2023/04/11 04:15:10;;;;;;;1.57;0.77;;;12.60;99.90;;;;;;5076483;28;20240;-58
2023/04/11 04:17:38;;;;;;;2.17;0.93;;;12.50;99.90;;;;;;5076075;28;20225;-58
2023/04/11 04:20:07;;;;;;;1.30;0.70;;;12.50;99.90;;;;;;5076083;28;20297;-59
2023/04/11 04:22:34;;;;;;;3.03;0.90;;;12.50;99.90;;;;;;5076221;28;20237;-58
2023/04/11 04:25:01;;;;;;;3.03;0.93;;;12.40;99.90;;;;;;5076374;28;20213;-58
2023/04/11 04:27:28;;;;;;;1.80;0.83;;;12.40;99.90;;;;;;5076701;28;20255;-58
2023/04/11 04:29:57;;;;;;;3.70;1.10;;;12.40;99.90;;;;;;5077234;28;20205;-58
2023/04/11 04:32:27;;;;;;;3.53;0.90;;;12.40;99.90;;;;;;5078287;28;20208;-58
2023/04/11 04:34:56;;;;;;;6.20;1.13;;;12.30;99.90;;;;;;5079199;28;20205;-58
2023/04/11 04:37:24;;;;;;;3.50;1.03;;;12.30;99.90;;;;;;5078556;28;20221;-58
2023/04/11 04:39:53;;;;;;;2.53;1.23;;;12.20;99.90;;;;;;5078253;28;20262;-59
2023/04/11 04:42:21;;;;;;;1.87;1.00;;;12.20;99.90;;;;;;5077887;28;20209;-59
2023/04/11 04:44:47;;;;;;;2.70;1.27;;;12.10;99.90;;;;;;5077502;28;20296;-59
2023/04/11 04:47:14;;;;;;;2.80;1.40;;;12.10;99.90;;;;;;5077607;28;20197;-57
2023/04/11 04:49:41;;;;;;;4.07;1.70;;;12.20;99.90;;;;;;5075691;28;20232;-56
2023/04/11 04:52:10;;;;;;;4.83;1.70;;;12.30;99.90;;;;;;5075461;28;20209;-57
2023/04/11 04:54:36;;;;;;;5.10;1.47;;;12.40;99.90;;;;;;5075238;28;20638;-57
2023/04/11 04:57:03;;;;;;;4.93;1.60;;;12.40;99.90;;;;;;5075016;28;20220;-57
2023/04/11 04:59:30;;;;;;;2.77;1.40;;;12.40;99.90;;;;;;5074696;28;20225;-57
2023/04/11 05:01:57;;;;;;;3.63;1.10;;;12.40;99.90;;;;;;5074816;28;20212;-57
2023/04/11 05:04:24;;;;;;;3.60;1.30;;;12.40;99.90;;;;;;5074866;28;20201;-57
2023/04/11 05:06:52;;;;;;;4.27;1.17;;;12.40;99.90;;;;;;5074885;28;20229;-57
2023/04/11 05:09:20;;;;;;;4.80;1.50;;;12.30;99.90;;;;;;5074546;28;20772;-57
2023/04/11 05:11:47;;;;;;;4.30;1.43;;;12.30;99.90;;;;;;5074733;28;20239;-57
2023/04/11 05:14:14;;;;;;;2.87;1.20;;;12.30;99.90;;;;;;5074914;28;20240;-57
2023/04/11 05:16:41;;;;;;;3.43;1.10;;;12.30;99.90;;;;;;5074507;28;20257;-57
2023/04/11 05:19:08;;;;;;;5.33;2.03;;;12.30;99.90;;;;;;5074049;28;20231;-57
2023/04/11 05:21:36;;;;;;;5.53;2.57;;;12.30;99.90;;;;;;5074699;28;20213;-57
2023/04/11 05:24:03;;;;;;;3.17;1.10;;;12.30;99.90;;;;;;5074447;28;20205;-58
2023/04/11 05:26:32;;;;;;;2.17;0.93;;;12.20;99.90;;;;;;5074157;28;20209;-58
2023/04/11 05:28:59;;;;;;;4.00;2.03;;;12.20;99.90;;;;;;5074004;28;20248;-57
2023/04/11 05:31:26;;;;;;;2.20;0.87;;;12.10;99.90;;;;;;5074264;28;20234;-58
2023/04/11 05:33:53;;;;;;;1.93;0.90;;;12.00;99.90;;;;;;5074386;28;20221;-57
2023/04/11 05:36:20;;;;;;;4.30;1.10;;;11.90;99.90;;;;;;5074319;28;20236;-57
2023/04/11 05:38:47;;;;;;;7.13;4.87;;;11.90;99.90;;;;;;5073999;28;20720;-58
2023/04/11 05:41:14;;;;;;;2.50;0.87;;;11.90;99.90;;;;;;5073761;28;20205;-56
2023/04/11 05:43:42;;;;;;;4.27;1.00;;;11.80;99.90;;;;;;5073912;28;20247;-58
2023/04/11 05:46:09;;;;;;;3.27;1.10;;;11.80;99.90;;;;;;5073948;28;20212;-57
2023/04/11 05:48:37;;;;;;;2.10;1.10;;;11.80;99.90;;;;;;5073512;28;20350;-57
2023/04/11 05:51:04;;;;;;;2.37;0.87;;;11.70;99.90;;;;;;5073245;28;20247;-57
2023/04/11 05:53:31;;;;;;;2.77;1.00;;;11.70;99.90;;;;;;5074056;28;20200;-57
2023/04/11 05:55:58;;;;;;;3.40;1.20;;;11.70;99.90;;;;;;5073123;28;20221;-58
2023/04/11 05:58:25;;;;;;;3.00;0.80;;;11.70;99.90;;;;;;5072757;28;20237;-58
2023/04/11 06:00:53;;;;;;;4.17;0.73;;;11.70;99.90;;;;;;5073260;28;20208;-57
2023/04/11 06:03:20;;;;;;;2.90;1.70;;;11.70;99.90;;;;;;5073454;28;20216;-58
2023/04/11 06:05:47;;;;;;;1.97;1.40;;;11.70;99.90;;;;;;5073326;28;20299;-57
2023/04/11 06:08:14;;;;;;;2.97;0.80;;;11.70;99.90;;;;;;5073348;28;20755;-58
2023/04/11 06:10:40;;;;;;;4.83;1.03;;;11.80;99.90;;;;;;5072986;28;20213;-58
2023/04/11 06:13:07;;;;;;;4.47;1.20;;;11.80;99.90;;;;;;5073155;28;20205;-58
2023/04/11 06:15:34;;;;;;;1.70;0.97;;;11.80;99.90;;;;;;5073352;28;20268;-58
2023/04/11 06:18:02;;;;;;;1.43;0.63;;;11.70;99.90;;;;;;5073250;28;20224;-58
2023/04/11 06:20:29;;;;;;;6.97;1.00;;;11.80;99.90;;;;;;5073499;28;20731;-56
2023/04/11 06:22:58;;;;;;;2.37;0.87;;;11.80;99.90;;;;;;5073366;28;20240;-57
2023/04/11 06:25:24;;;;;;;4.97;1.50;;;11.90;99.90;;;;;;5073446;28;20240;-57
2023/04/11 06:27:51;;;;;;;3.17;1.20;;;11.90;99.90;;;;;;5073197;28;20298;-57
2023/04/11 06:30:18;;;;;;;3.07;0.90;;;11.90;99.90;;;;;;5073495;28;20212;-57
2023/04/11 06:32:45;;;;;;;2.37;0.93;;;11.90;99.90;;;;;;5073605;28;20201;-57
2023/04/11 06:35:13;;;;;;;1.87;0.80;;;12.00;99.90;;;;;;5073155;28;20220;-58
2023/04/11 06:37:41;;;;;;;5.30;1.30;;;12.00;99.90;;;;;;5072434;28;20665;-57
2023/04/11 06:40:09;;;;;;;4.40;0.97;;;12.00;99.90;;;;;;5072833;28;20219;-57
2023/04/11 06:42:35;;;;;;;3.27;1.13;;;12.20;99.90;;;;;;5072813;28;20205;-57
2023/04/11 06:45:04;;;;;;;1.97;1.00;;;12.30;99.90;;;;;;5072665;28;20213;-57
2023/04/11 06:47:30;;;;;;;2.30;1.30;;;12.30;99.90;;;;;;5072656;28;20653;-57
2023/04/11 06:49:58;;;;;;;13.30;7.53;;;12.40;99.90;;;;;;5072487;28;20204;-57
2023/04/11 06:52:26;;;;;;;4.20;1.27;;;12.50;99.90;;;;;;5072775;28;20209;-57
2023/04/11 06:54:53;;;;;;;3.70;1.10;;;12.60;99.90;;;;;;5072783;28;20201;-57
2023/04/11 06:57:20;;;;;;;1.90;1.07;;;12.70;99.90;;;;;;5072519;28;20231;-58
2023/04/11 06:59:47;;;;;;;4.27;1.07;;;12.80;99.90;;;;;;5072412;28;20209;-57
2023/04/11 07:02:14;;;;;;;2.33;1.00;;;12.80;99.90;;;;;;5072341;28;20223;-57
2023/04/11 07:04:41;;;;;;;1.90;1.20;;;12.90;99.90;;;;;;5072602;28;20212;-57
2023/04/11 07:07:08;;;;;;;3.30;1.20;;;12.90;99.90;;;;;;5072417;28;20216;-57
2023/04/11 07:09:36;;;;;;;3.90;1.20;;;13.00;99.90;;;;;;5072195;28;20319;-57
2023/04/11 07:12:04;;;;;;;1.90;0.73;;;13.20;99.90;;;;;;5072408;28;20568;-57
2023/04/11 07:14:31;;;;;;;2.90;0.90;;;13.10;99.90;;;;;;5072592;28;20211;-56
2023/04/11 07:16:58;;;;;;;2.53;0.70;;;13.10;99.90;;;;;;5072210;28;20204;-57
2023/04/11 07:19:24;;;;;;;1.50;0.90;;;13.10;99.90;;;;;;5072014;28;20229;-57
2023/04/11 07:21:51;;;;;;;5.13;1.53;;;13.10;99.90;;;;;;5072445;28;20205;-57
2023/04/11 07:24:19;;;;;;;4.10;1.43;;;13.20;99.90;;;;;;5071941;28;20273;-57
2023/04/11 07:26:49;;;;;;;7.73;1.37;;;13.30;99.90;;;;;;5071988;28;20734;-57
2023/04/11 07:29:16;;;;;;;3.77;1.03;;;13.50;99.90;;;;;;5078327;22;20236;-60
2023/04/11 07:31:43;;;;;;;6.23;1.30;;;13.70;99.90;;;;;;5063147;28;20201;-60
2023/04/11 07:34:10;;;;;;;3.97;1.33;;;13.80;99.90;;;;;;5071498;28;20212;-60
2023/04/11 07:36:37;;;;;;;4.43;1.30;;;14.00;99.90;;;;;;5071381;28;20212;-60
2023/04/11 07:39:07;;;;;;;4.60;0.77;;;14.30;99.90;;;;;;5071497;28;20252;-60
2023/04/11 07:41:35;;;;;;;2.13;1.20;;;14.50;99.90;;;;;;5071603;28;20209;-60
2023/04/11 07:44:03;;;;;;;4.90;1.20;;;14.50;99.90;;;;;;5071275;28;20212;-60
2023/04/11 07:46:30;;;;;;;3.70;0.83;;;14.40;99.90;;;;;;5071872;28;20216;-61
2023/04/11 07:48:57;;;;;;;2.83;0.90;;;14.20;99.90;;;;;;5071679;28;20278;-61
2023/04/11 07:51:25;;;;;;;2.70;0.90;;;14.10;99.90;;;;;;5071302;28;20205;-60
2023/04/11 07:53:51;;;;;;;4.50;1.20;;;14.20;99.90;;;;;;5071528;28;20248;-60
2023/04/11 07:56:18;;;;;;;5.30;1.10;;;14.10;99.90;;;;;;5071461;28;20231;-60
2023/04/11 07:58:45;;;;;;;4.23;1.40;;;14.20;99.90;;;;;;5071256;28;20236;-60
2023/04/11 08:01:21;;;;;;;3.43;0.90;;;14.20;99.90;;;;;;5071244;28;20668;-60
2023/04/11 08:03:48;;;;;;;3.17;1.17;;;14.50;99.90;;;;;;5071514;28;20204;-60
2023/04/11 08:06:15;;;;;;;5.30;1.13;;;14.90;99.90;;;;;;5071462;28;20217;-60
2023/04/11 08:08:42;;;;;;;6.87;1.43;;;15.00;99.90;;;;;;5071324;28;20252;-61
2023/04/11 08:11:09;;;;;;;5.70;1.40;;;15.10;99.90;;;;;;5071031;28;20668;-60
2023/04/11 08:13:35;;;;;;;9.83;5.13;;;15.20;99.90;;;;;;5071292;28;20637;-61
2023/04/11 08:16:05;;;;;;;3.70;1.10;;;15.30;99.90;;;;;;5071452;28;20216;-61
2023/04/11 08:18:34;;;;;;;4.10;0.97;;;15.50;99.90;;;;;;5071220;28;20270;-61
2023/04/11 08:21:00;;;;;;;2.80;1.20;;;15.60;99.90;;;;;;5073149;28;20231;-60
2023/04/11 08:23:27;;;;;;;3.33;1.33;;;15.80;99.90;;;;;;5074841;28;20209;-61
2023/04/11 08:25:54;;;;;;;4.32;1.25;;;15.90;99.90;;;;;;5075198;28;20212;-61
2023/04/11 08:28:21;;;;;;;4.10;1.42;;;16.20;99.90;;;;;;5074597;28;20225;-60
2023/04/11 08:30:51;;;;;;;6.65;1.65;;;16.40;99.90;;;;;;5074526;28;20680;-61
2023/04/11 08:33:19;;;;;;;4.70;1.30;;;16.30;99.90;;;;;;5074891;28;20205;-61
2023/04/11 08:35:47;;;;;;;3.92;1.30;;;16.30;99.90;;;;;;5074667;28;20213;-61
2023/04/11 08:38:14;;;;;;;4.30;1.45;;;16.40;99.90;;;;;;5074551;28;20217;-62
2023/04/11 08:40:40;;;;;;;4.22;1.60;;;16.40;99.90;;;;;;5068789;28;20205;-62
2023/04/11 08:43:11;;;;;;;3.57;1.70;;;16.50;99.90;;;;;;5052622;28;20232;-65
2023/04/11 08:45:37;;;;;;;5.70;1.20;;;16.30;99.90;;;;;;5054710;28;20630;-65
2023/04/11 08:48:05;;;;;;;5.00;1.17;;;16.10;99.90;;;;;;5073160;28;20669;-65
2023/04/11 08:50:32;;;;;;;4.33;1.53;;;15.90;99.90;;;;;;5073496;28;20209;-65
2023/04/11 08:53:02;;;;;;;6.13;1.73;;;15.80;99.90;;;;;;5073371;28;20209;-66
2023/04/11 08:55:29;;;;;;;4.47;1.33;;;15.70;99.90;;;;;;5073547;28;20251;-65
2023/04/11 08:57:58;;;;;;;5.17;1.17;;;15.60;99.90;;;;;;5073561;28;20217;-64
2023/04/11 09:00:27;;;;;;;3.77;1.43;;;15.50;99.90;;;;;;5073100;28;20631;-64
2023/04/11 09:02:55;;;;;;;4.57;1.10;;;15.50;99.90;;;;;;5073505;28;20213;-67
2023/04/11 09:05:27;;;;;;;6.27;1.23;;;15.60;99.90;;;;;;5073339;28;20703;-65
2023/04/11 09:07:54;;;;;;;4.87;1.70;;;15.70;99.90;;;;;;5073312;28;20201;-65
2023/04/11 09:10:24;;;;;;;4.68;1.23;;;15.80;99.90;;;;;;5073203;28;20253;-64
2023/04/11 09:12:51;;;;;;;4.10;1.30;;;15.70;99.90;;;;;;5072947;28;20208;-63
2023/04/11 09:15:19;;;;;;;6.07;1.98;;;15.80;99.90;;;;;;5073150;28;20201;-63
2023/04/11 09:17:46;;;;;;;4.33;1.57;;;16.00;99.90;;;;;;5073003;28;20620;-63
2023/04/11 09:20:17;;;;;;;7.97;3.20;;;16.00;99.90;;;;;;5072931;28;20229;-61
2023/04/11 09:22:44;;;;;;;6.73;1.63;;;15.80;99.90;;;;;;5073084;28;20602;-63
2023/04/11 09:25:11;;;;;;;4.90;1.50;;;15.70;99.20;;;;;;5072387;28;20756;-64
2023/04/11 09:27:39;;;;;;;6.97;1.27;;;15.90;99.70;;;;;;5073010;28;20201;-64
2023/04/11 09:30:18;;;;;;;3.67;1.50;;;16.40;99.90;;;;;;5072512;28;20571;-63
2023/04/11 09:32:47;;;;;;;4.15;1.45;;;16.80;99.40;;;;;;5071538;28;20299;-63
2023/04/11 09:35:15;;;;;;;5.00;1.33;;;17.10;98.30;;;;;;5072837;28;20200;-63
2023/04/11 09:37:44;;;;;;;4.47;1.30;;;17.10;97.40;;;;;;5072592;28;20251;-62
2023/04/11 09:40:11;;;;;;;5.07;1.58;;;17.00;97.70;;;;;;5072680;28;20225;-63
2023/04/11 09:42:40;;;;;;;3.53;1.30;;;16.70;98.80;;;;;;5072895;28;20766;-63
2023/04/11 09:45:17;;;;;;;4.95;1.75;;;16.50;99.90;;;;;;5072600;28;20208;-66
2023/04/11 09:47:44;;;;;;;6.05;1.38;;;16.50;99.90;;;;;;5073851;28;20240;-62
2023/04/11 09:50:11;;;;;;;4.22;1.67;;;16.10;99.90;;;;;;5073813;28;20225;-61
2023/04/11 09:52:41;;;;;;;5.88;1.75;;;15.90;99.90;;;;;;5073950;28;20200;-61
2023/04/11 09:55:09;;;;;;;8.77;1.70;;;15.70;99.90;;;;;;5074095;28;20224;-62
2023/04/11 09:57:38;;;;;;;7.30;1.63;;;15.50;99.90;;;;;;5073801;28;20205;-61
2023/04/11 10:00:13;;;;;;;4.73;1.90;;;15.30;99.90;;;;;;5073506;28;20298;-62
2023/04/11 10:02:40;;;;;;;3.97;1.43;;;14.90;99.90;;;;;;5073599;28;20211;-61
2023/04/11 10:05:09;;;;;;;7.07;1.80;;;14.70;99.90;;;;;;5073042;28;20289;-61
2023/04/11 10:07:44;;;;;;;3.63;1.20;;;14.70;99.90;;;;;;5072717;28;20285;-62
2023/04/11 10:10:18;;;;;;;5.73;1.43;;;15.00;99.90;;;;;;5072518;28;20220;-62
2023/04/11 10:12:45;;;;;;;5.87;1.40;;;15.20;99.90;;;;;;5073262;28;20219;-61
2023/04/11 10:15:14;;;;;;;5.10;2.10;;;15.10;99.90;;;;;;5072991;28;20584;-61
2023/04/11 10:17:41;;;;;;;4.37;1.40;;;14.80;99.90;;;;;;5072771;28;20205;-61
2023/04/11 10:20:42;;;;;;;6.63;1.77;;;14.80;99.90;;;;;;5072449;28;20335;-62
2023/04/11 10:23:09;;;;;;;4.80;1.60;;;14.90;99.90;;;;;;5073083;28;20205;-61
2023/04/11 10:25:49;;;;;;;4.63;1.27;;;15.00;97.60;;;;;;5072804;28;20334;-61
2023/04/11 10:28:30;;;;;;;4.00;1.20;;;14.90;96.20;;;;;;5072622;28;20250;-63
2023/04/11 10:31:06;;;;;;;4.47;1.60;;;14.80;95.50;;;;;;5072478;28;20266;-61
2023/04/11 10:33:34;;;;;;;3.40;1.20;;;14.90;96.20;;;;;;5072812;28;20212;-62
2023/04/11 10:36:04;;;;;;;7.07;2.63;;;15.10;95.30;;;;;;5072811;28;20209;-61
2023/04/11 10:38:47;;;;;;;7.20;1.70;;;15.30;95.40;;;;;;5072350;28;20760;-61
2023/04/11 10:41:30;;;;;;;5.53;1.20;;;15.50;94.80;;;;;;5071977;28;20696;-61
2023/04/11 10:44:19;;;;;;;2.70;1.00;;;15.50;94.70;;;;;;5072338;28;20824;-61
2023/04/11 10:46:49;;;;;;;4.47;1.30;;;15.80;94.30;;;;;;5072677;28;20209;-61
2023/04/11 10:49:35;;;;;;;3.27;1.10;;;15.90;93.40;;;;;;5072378;28;20225;-61
2023/04/11 10:52:21;;;;;;;4.57;1.50;;;16.20;93.40;;;;;;5072327;28;20205;-63
2023/04/11 10:54:48;;;;;;;5.00;1.23;;;16.50;93.60;;;;;;5073019;28;20208;-63
2023/04/11 10:57:15;;;;;;;3.47;1.42;;;16.90;93.50;;;;;;5072353;28;20215;-62
2023/04/11 11:00:13;;;;;;;5.20;1.40;;;16.90;93.50;;;;;;5072332;28;20229;-62
2023/04/11 11:02:41;;;;;;;3.85;1.23;;;16.90;93.50;;;;;;5072782;28;20205;-62
2023/04/11 11:05:24;;;;;;;5.10;1.50;;;17.20;94.40;;;;;;5072247;28;20589;-62
2023/04/11 11:07:53;;;;;;;3.55;1.27;;;17.50;94.50;;;;;;5072334;28;20558;-63
2023/04/11 11:10:35;;;;;;;3.55;1.38;;;17.80;93.60;;;;;;5072089;28;20224;-63
2023/04/11 11:13:02;;;;;;;8.88;1.23;;;17.90;94.50;;;;;;5070228;28;20295;-63
2023/04/11 11:15:29;;;;;;;2.40;1.00;;;18.00;93.60;;;;;;5072889;28;20211;-61
2023/04/11 11:17:58;;;;;;;4.80;1.13;;;18.00;92.70;;;;;;5072348;28;20223;-61
2023/04/11 11:20:25;;;;;;;4.50;1.45;;;17.80;92.30;;;;;;5072039;28;20228;-62
2023/04/11 11:22:59;;;;;;;7.97;1.63;;;17.50;93.00;;;;;;5072838;28;20668;-61
2023/04/11 11:25:26;;;;;;;4.88;1.60;;;17.30;93.10;;;;;;5072380;28;20526;-62
2023/04/11 11:27:59;;;;;;;4.97;2.75;;;17.20;93.00;;;;;;5072681;28;20567;-62
2023/04/11 11:30:26;;;;;;;4.38;1.23;;;17.10;93.40;;;;;;5072531;28;20212;-62
2023/04/11 11:32:53;;;;;;;4.13;1.38;;;16.90;92.60;;;;;;5072106;28;20209;-62
2023/04/11 11:35:22;;;;;;;5.55;1.52;;;17.00;92.70;;;;;;5072044;28;20250;-62
2023/04/11 11:37:50;;;;;;;3.42;1.13;;;17.10;91.30;;;;;;5072015;28;20204;-62
2023/04/11 11:40:20;;;;;;;3.75;1.00;;;17.30;90.00;;;;;;5071596;28;20225;-63
2023/04/11 11:42:48;;;;;;;4.20;1.10;;;17.60;88.80;;;;;;5072339;28;20340;-63
2023/04/11 11:45:15;;;;;;;4.03;1.23;;;17.80;88.70;;;;;;5072395;28;20205;-63
2023/04/11 11:47:42;;;;;;;3.78;1.23;;;18.00;87.80;;;;;;5072106;28;20607;-63
2023/04/11 11:50:10;;;;;;;6.18;1.45;;;18.00;86.90;;;;;;5073839;28;20224;-63
2023/04/11 11:52:40;;;;;;;4.03;1.55;;;18.00;86.40;;;;;;5074779;28;20251;-62
2023/04/11 11:55:09;;;;;;;3.83;1.17;;;18.20;85.70;;;;;;5076200;28;20201;-63
2023/04/11 11:57:36;;;;;;;4.30;1.30;;;18.30;85.50;;;;;;5079596;28;20622;-62
2023/04/11 12:00:09;;;;;;;4.60;1.42;;;18.30;86.10;;;;;;5080084;28;20228;-63
2023/04/11 12:02:36;;;;;;;5.88;1.50;;;18.30;84.70;;;;;;5079188;28;20219;-63
2023/04/11 12:05:05;;;;;;;4.43;1.15;;;18.40;84.80;;;;;;5077011;28;20254;-62
2023/04/11 12:07:33;;;;;;;2.70;1.13;;;18.40;84.50;;;;;;5075986;28;20572;-63
2023/04/11 12:10:02;;;;;;;3.92;1.15;;;18.50;84.70;;;;;;5075544;28;20221;-63
2023/04/11 12:12:34;;;;;;;4.13;1.35;;;18.70;80.90;;;;;;5075636;28;20212;-62
2023/04/11 12:15:02;;;;;;;3.42;1.25;;;18.70;81.10;;;;;;5075616;28;20201;-62
2023/04/11 12:17:32;;;;;;;4.43;1.45;;;18.70;79.60;;;;;;5075313;28;20205;-63
2023/04/11 12:19:59;;;;;;;6.03;1.17;;;18.70;79.10;;;;;;5075121;28;20315;-62
2023/04/11 12:22:26;;;;;;;3.03;0.90;;;18.50;77.50;;;;;;5075180;28;20217;-63
2023/04/11 12:24:52;;;;;;;3.75;1.42;;;18.40;80.20;;;;;;5074914;28;20565;-63
2023/04/11 12:27:21;;;;;;;6.55;2.00;;;18.40;80.50;;;;;;5075091;28;20547;-63
2023/04/11 12:29:47;;;;;;;4.20;1.38;;;18.20;81.10;;;;;;5074623;28;20323;-63
2023/04/11 12:32:14;;;;;;;3.47;1.42;;;18.10;82.50;;;;;;5075251;28;20227;-62
2023/04/11 12:34:41;;;;;;;2.45;1.23;;;18.10;82.10;;;;;;5074869;28;20575;-62
2023/04/11 12:37:07;;;;;;;2.20;0.90;;;17.90;82.70;;;;;;5074989;28;20209;-63
2023/04/11 12:39:34;;;;;;;4.72;1.25;;;17.70;81.30;;;;;;5074412;28;20225;-62
2023/04/11 12:42:01;;;;;;;4.43;1.38;;;17.60;80.50;;;;;;5074882;28;20213;-62
2023/04/11 12:44:29;;;;;;;3.75;1.27;;;17.30;79.30;;;;;;5074882;28;20201;-62
2023/04/11 12:46:56;;;;;;;4.40;1.25;;;17.40;80.60;;;;;;5074684;28;20237;-62
2023/04/11 12:49:22;;;;;;;3.42;1.40;;;17.50;80.20;;;;;;5074785;28;20224;-62
2023/04/11 12:51:49;;;;;;;5.40;1.58;;;17.60;80.40;;;;;;5074657;28;20204;-62